createdAt,value
2018-11-28T00:02:18.762Z,24.80
2018-11-28T00:04:48.852Z,25.77
2018-11-28T00:07:19.102Z,24.73
2018-11-28T00:09:49.242Z,24.67
2018-11-28T00:12:19.232Z,25.27
2018-11-28T00:14:49.354Z,25.83
2018-11-28T00:17:19.351Z,25.00
2018-11-28T00:19:49.393Z,26.00
2018-11-28T00:22:19.356Z,26.40
2018-11-28T00:24:49.532Z,25.73
2018-11-28T00:27:19.421Z,25.70
2018-11-28T00:29:49.312Z,25.33
2018-11-28T00:32:19.273Z,26.10
2018-11-28T00:34:49.193Z,26.17
2018-11-28T00:37:19.053Z,24.30
2018-11-28T00:39:48.832Z,25.73
2018-11-28T00:42:18.866Z,25.90
2018-11-28T00:44:49.172Z,27.90
2018-11-28T00:47:19.142Z,26.70
2018-11-28T00:49:49.013Z,27.37
2018-11-28T00:52:18.982Z,26.37
2018-11-28T00:54:49.002Z,23.30
2018-11-28T00:57:19.002Z,26.13
2018-11-28T00:59:48.893Z,25.70
2018-11-28T01:02:18.932Z,27.13
2018-11-28T01:04:48.981Z,27.23
2018-11-28T01:07:19.042Z,25.63
2018-11-28T01:09:49.152Z,25.00
2018-11-28T01:12:19.215Z,26.43
2018-11-28T01:14:49.570Z,26.90
2018-11-28T01:17:19.541Z,25.83
2018-11-28T01:19:49.675Z,25.90
2018-11-28T01:22:19.712Z,25.67
2018-11-28T01:24:50.022Z,25.43
2018-11-28T01:27:20.093Z,27.07
2018-11-28T01:29:50.140Z,26.77
2018-11-28T01:32:20.142Z,25.70
2018-11-28T01:34:50.332Z,24.97
2018-11-28T01:37:20.501Z,26.93
2018-11-28T01:39:50.393Z,22.40
2018-11-28T01:42:20.381Z,25.17
2018-11-28T01:44:50.482Z,23.07
2018-11-28T01:47:20.373Z,24.87
2018-11-28T01:49:50.232Z,25.27
2018-11-28T01:52:20.243Z,24.37
2018-11-28T01:54:50.262Z,23.80
2018-11-28T01:57:20.132Z,23.43
2018-11-28T01:59:50.001Z,25.17
2018-11-28T02:02:20.042Z,24.90
2018-11-28T02:04:49.922Z,23.87
2018-11-28T02:07:20.532Z,25.03
2018-11-28T02:09:50.452Z,23.23
2018-11-28T02:12:20.452Z,22.90
2018-11-28T02:14:50.842Z,23.80
2018-11-28T02:17:20.923Z,24.57
2018-11-28T02:19:50.912Z,24.37
2018-11-28T02:22:20.972Z,22.87
2018-11-28T02:24:50.892Z,23.33
2018-11-28T02:27:20.791Z,23.53
2018-11-28T02:29:50.711Z,24.40
2018-11-28T02:32:20.935Z,23.93
2018-11-28T02:34:50.841Z,25.00
2018-11-28T02:37:21.051Z,25.43
2018-11-28T02:39:51.012Z,25.13
2018-11-28T02:42:21.033Z,25.27
2018-11-28T02:44:50.915Z,23.67
2018-11-28T02:47:21.055Z,24.50
2018-11-28T02:49:51.080Z,25.87
2018-11-28T02:52:21.105Z,25.03
2018-11-28T02:54:51.241Z,23.60
2018-11-28T02:57:21.212Z,24.57
2018-11-28T02:59:51.214Z,25.27
2018-11-28T03:02:21.172Z,24.63
2018-11-28T03:04:50.932Z,24.47
2018-11-28T03:07:21.010Z,24.90
2018-11-28T03:09:51.291Z,23.80
2018-11-28T03:12:21.513Z,23.53
2018-11-28T03:14:51.642Z,24.03
2018-11-28T03:17:25.472Z,26.27
2018-11-28T03:19:55.683Z,26.37
2018-11-28T03:22:25.873Z,24.27
2018-11-28T03:24:55.854Z,23.77
2018-11-28T03:27:26.278Z,23.87
2018-11-28T03:29:56.272Z,24.43
2018-11-28T03:32:26.645Z,23.87
2018-11-28T03:34:56.684Z,24.10
2018-11-28T03:37:26.902Z,24.33
2018-11-28T03:39:57.164Z,24.60
2018-11-28T03:42:27.232Z,24.20
2018-11-28T03:44:57.193Z,22.47
2018-11-28T03:47:27.167Z,23.53
2018-11-28T03:49:57.183Z,24.73
2018-11-28T03:52:27.283Z,25.13
2018-11-28T03:54:57.307Z,24.17
2018-11-28T03:57:27.374Z,23.67
2018-11-28T03:59:57.233Z,23.40
2018-11-28T04:02:26.582Z,23.37
2018-11-28T04:04:56.643Z,23.00
2018-11-28T04:07:26.613Z,23.50
2018-11-28T04:09:56.694Z,24.37
2018-11-28T04:12:26.533Z,24.60
2018-11-28T04:14:56.413Z,24.87
2018-11-28T04:17:26.364Z,24.20
2018-11-28T04:19:56.513Z,24.33
2018-11-28T04:22:26.241Z,24.07
2018-11-28T04:24:56.032Z,23.90
2018-11-28T04:27:26.460Z,25.77
2018-11-28T04:29:56.579Z,23.83
2018-11-28T04:32:26.483Z,24.27
2018-11-28T04:34:56.832Z,24.00
2018-11-28T04:37:26.833Z,24.10
2018-11-28T04:39:56.853Z,23.73
2018-11-28T04:42:26.993Z,23.80
2018-11-28T04:44:57.333Z,24.67
2018-11-28T04:47:27.233Z,24.77
2018-11-28T04:49:57.103Z,24.40
2018-11-28T04:52:28.123Z,25.43
2018-11-28T04:54:58.513Z,24.60
2018-11-28T04:57:28.513Z,24.60
2018-11-28T04:59:58.492Z,26.07
2018-11-28T05:02:28.294Z,24.93
2018-11-28T05:04:57.962Z,25.37
2018-11-28T05:07:29.666Z,25.40
2018-11-28T05:10:00.087Z,25.73
2018-11-28T05:12:30.137Z,26.27
2018-11-28T05:15:00.294Z,24.80
2018-11-28T05:17:30.414Z,25.87
2018-11-28T05:20:00.453Z,24.50
2018-11-28T05:22:30.395Z,25.77
2018-11-28T05:25:00.412Z,26.50
2018-11-28T05:27:30.243Z,25.60
2018-11-28T05:30:00.525Z,25.57
2018-11-28T05:32:30.742Z,27.13
2018-11-28T05:35:00.654Z,24.50
2018-11-28T05:37:30.594Z,26.13
2018-11-28T05:40:00.702Z,25.33
2018-11-28T05:42:30.643Z,26.27
2018-11-28T05:45:00.347Z,25.60
2018-11-28T05:47:30.001Z,27.07
2018-11-28T05:49:59.159Z,25.90
2018-11-28T05:52:28.943Z,26.10
2018-11-28T05:54:58.249Z,25.90
2018-11-28T05:57:28.332Z,27.23
2018-11-28T05:59:58.303Z,25.83
2018-11-28T06:02:28.494Z,27.17
2018-11-28T06:04:58.885Z,27.13
2018-11-28T06:07:28.904Z,26.77
2018-11-28T06:09:59.694Z,26.77
2018-11-28T06:12:29.742Z,26.00
2018-11-28T06:14:59.291Z,26.77
2018-11-28T06:17:29.233Z,26.93
2018-11-28T06:19:59.282Z,24.73
2018-11-28T06:22:29.214Z,26.73
2018-11-28T06:24:59.414Z,27.50
2018-11-28T06:27:29.373Z,26.87
2018-11-28T06:29:59.935Z,26.93
2018-11-28T06:32:29.995Z,26.47
2018-11-28T06:34:59.953Z,27.87
2018-11-28T06:37:29.612Z,27.53
2018-11-28T06:39:59.406Z,26.37
2018-11-28T06:42:29.463Z,26.33
2018-11-28T06:44:59.324Z,27.07
2018-11-28T06:47:29.870Z,26.03
2018-11-28T06:50:00.623Z,28.80
2018-11-28T06:52:30.489Z,26.67
2018-11-28T06:55:00.436Z,27.17
2018-11-28T06:57:31.123Z,28.53
2018-11-28T07:00:01.304Z,27.63
2018-11-28T07:02:31.355Z,25.47
2018-11-28T07:05:02.991Z,26.27
2018-11-28T07:07:33.234Z,27.43
2018-11-28T07:10:03.216Z,27.03
2018-11-28T07:12:33.535Z,26.10
2018-11-28T07:15:03.497Z,28.23
2018-11-28T07:17:33.614Z,27.20
2018-11-28T07:20:03.850Z,26.87
2018-11-28T07:22:34.416Z,28.87
2018-11-28T07:25:05.322Z,27.73
2018-11-28T07:27:35.671Z,26.97
2018-11-28T07:30:16.735Z,26.43
2018-11-28T07:32:47.694Z,26.70
2018-11-28T07:35:17.687Z,27.73
2018-11-28T07:37:47.983Z,27.80
2018-11-28T07:40:22.593Z,26.43
2018-11-28T07:43:07.732Z,26.80
2018-11-28T07:45:40.253Z,25.87
2018-11-28T07:48:10.254Z,27.33
2018-11-28T07:50:40.354Z,26.70
2018-11-28T07:53:10.702Z,27.10
2018-11-28T07:55:47.462Z,27.60
2018-11-28T07:58:17.775Z,27.87
2018-11-28T08:00:47.552Z,26.00
2018-11-28T08:03:18.975Z,26.00
2018-11-28T08:05:48.995Z,26.07
2018-11-28T08:08:19.043Z,27.40
2018-11-28T08:10:48.972Z,27.67
2018-11-28T08:13:19.265Z,27.27
2018-11-28T08:15:49.449Z,27.60
2018-11-28T08:18:19.574Z,29.40
2018-11-28T08:20:49.695Z,28.97
2018-11-28T08:23:19.809Z,29.37
2018-11-28T08:25:50.034Z,27.03
2018-11-28T08:28:20.104Z,26.33
2018-11-28T08:30:50.254Z,26.90
2018-11-28T08:33:20.262Z,26.87
2018-11-28T08:35:50.134Z,26.30
2018-11-28T08:38:20.374Z,25.53
2018-11-28T08:40:50.164Z,24.33
2018-11-28T08:43:20.034Z,25.73
2018-11-28T08:45:49.995Z,23.90
2018-11-28T08:48:20.534Z,26.30
2018-11-28T08:50:50.774Z,26.50
2018-11-28T08:53:20.893Z,24.57
2018-11-28T08:55:51.163Z,24.00
2018-11-28T08:58:20.842Z,24.50
2018-11-28T09:00:50.624Z,23.63
2018-11-28T09:03:20.595Z,24.87
2018-11-28T09:05:50.475Z,23.63
2018-11-28T09:08:20.552Z,21.87
2018-11-28T09:10:50.456Z,24.07
2018-11-28T09:13:20.503Z,22.57
2018-11-28T09:15:50.544Z,22.60
2018-11-28T09:18:20.524Z,24.00
2018-11-28T09:20:50.504Z,22.87
2018-11-28T09:23:20.524Z,21.80
2018-11-28T09:25:50.553Z,23.63
2018-11-28T09:28:20.136Z,22.47
2018-11-28T09:30:50.433Z,23.50
2018-11-28T09:33:20.514Z,21.33
2018-11-28T09:35:50.582Z,22.47
2018-11-28T09:38:21.431Z,22.60
2018-11-28T09:40:50.603Z,22.30
2018-11-28T09:43:20.763Z,20.83
2018-11-28T09:45:50.534Z,19.33
2018-11-28T09:48:20.515Z,17.77
2018-11-28T09:50:50.655Z,19.20
2018-11-28T09:53:20.763Z,18.53
2018-11-28T09:55:50.975Z,18.80
2018-11-28T09:58:20.955Z,18.97
2018-11-28T10:00:51.115Z,18.10
2018-11-28T10:03:20.695Z,18.03
2018-11-28T10:05:50.696Z,18.83
2018-11-28T10:08:20.765Z,16.97
2018-11-28T10:10:51.035Z,17.60
2018-11-28T10:13:21.095Z,16.77
2018-11-28T10:15:51.194Z,17.53
2018-11-28T10:18:21.235Z,17.40
2018-11-28T10:20:51.115Z,17.53
2018-11-28T10:23:20.845Z,17.23
2018-11-28T10:25:51.004Z,15.60
2018-11-28T10:28:21.035Z,17.70
2018-11-28T10:30:50.974Z,16.93
2018-11-28T10:33:21.156Z,18.03
2018-11-28T10:35:52.144Z,19.23
2018-11-28T10:38:22.165Z,16.13
2018-11-28T10:40:52.216Z,17.23
2018-11-28T10:43:22.245Z,16.00
2018-11-28T10:45:52.415Z,17.33
2018-11-28T10:48:22.354Z,16.60
2018-11-28T10:50:52.814Z,17.23
2018-11-28T10:53:22.757Z,16.67
2018-11-28T10:55:52.665Z,19.00
2018-11-28T10:58:22.509Z,16.40
2018-11-28T11:00:57.833Z,17.27
2018-11-28T11:03:33.034Z,18.03
2018-11-28T11:06:04.386Z,18.47
2018-11-28T11:08:40.025Z,17.20
2018-11-28T11:11:15.143Z,17.17
2018-11-28T11:13:50.344Z,16.40
2018-11-28T11:16:25.646Z,17.20
2018-11-28T11:18:56.284Z,16.33
2018-11-28T11:21:26.585Z,16.80
2018-11-28T11:23:56.736Z,15.27
2018-11-28T11:26:26.815Z,16.57
2018-11-28T11:28:56.884Z,17.33
2018-11-28T11:31:26.966Z,16.40
2018-11-28T11:33:57.055Z,16.80
2018-11-28T11:36:27.224Z,16.43
2018-11-28T11:38:57.158Z,15.33
2018-11-28T11:41:27.084Z,16.07
2018-11-28T11:43:57.296Z,15.57
2018-11-28T11:46:27.636Z,16.20
2018-11-28T11:48:57.676Z,15.30
2018-11-28T11:51:28.025Z,15.37
2018-11-28T11:53:58.815Z,14.50
2018-11-28T11:56:28.944Z,14.13
2018-11-28T11:58:58.927Z,14.00
2018-11-28T12:01:29.406Z,13.27
2018-11-28T12:03:59.455Z,13.03
2018-11-28T12:06:29.665Z,12.37
2018-11-28T12:08:59.496Z,12.53
2018-11-28T12:11:29.784Z,9.77
2018-11-28T12:13:59.744Z,7.17
2018-11-28T12:16:29.854Z,6.87
2018-11-28T12:19:00.019Z,7.53
2018-11-28T12:21:30.245Z,8.80
2018-11-28T12:24:00.437Z,7.60
2018-11-28T12:26:30.652Z,8.43
2018-11-28T12:29:00.597Z,8.30
2018-11-28T12:31:30.185Z,8.13
2018-11-28T12:34:00.449Z,8.03
2018-11-28T12:36:30.266Z,7.80
2018-11-28T12:39:00.546Z,8.90
2018-11-28T12:41:30.424Z,8.97
2018-11-28T12:44:00.348Z,9.60
2018-11-28T12:46:30.336Z,9.10
2018-11-28T12:49:00.325Z,8.97
2018-11-28T12:51:30.496Z,9.37
2018-11-28T12:54:01.364Z,9.23
2018-11-28T12:56:31.435Z,9.43
2018-11-28T12:59:01.858Z,9.37
2018-11-28T13:01:32.891Z,9.40
2018-11-28T13:04:02.405Z,9.00
2018-11-28T13:06:32.504Z,9.17
2018-11-28T13:09:02.514Z,9.10
2018-11-28T13:11:32.595Z,8.80
2018-11-28T13:14:02.396Z,9.17
2018-11-28T13:16:32.405Z,9.57
2018-11-28T13:19:02.444Z,9.10
2018-11-28T13:21:32.464Z,8.57
2018-11-28T13:24:02.564Z,9.00
2018-11-28T13:26:32.544Z,9.17
2018-11-28T13:29:02.625Z,8.67
2018-11-28T13:31:32.776Z,8.53
2018-11-28T13:34:02.885Z,8.77
2018-11-28T13:36:32.826Z,7.90
2018-11-28T13:39:02.915Z,7.63
2018-11-28T13:41:33.305Z,6.93
2018-11-28T13:44:03.344Z,6.70
2018-11-28T13:46:33.484Z,6.87
2018-11-28T13:49:03.658Z,6.73
2018-11-28T13:51:33.565Z,5.77
2018-11-28T13:54:20.746Z,6.03
2018-11-28T13:59:03.695Z,5.87
2018-11-28T14:01:33.796Z,5.87
2018-11-28T14:04:03.785Z,5.70
2018-11-28T14:06:33.705Z,5.70
2018-11-28T14:09:04.484Z,6.00
2018-11-28T14:11:34.455Z,5.70
2018-11-28T14:14:04.554Z,5.63
2018-11-28T14:16:34.616Z,5.80
2018-11-28T14:19:04.705Z,6.33
2018-11-28T14:21:35.167Z,6.00
2018-11-28T14:24:05.795Z,6.67
2018-11-28T14:26:35.745Z,6.70
2018-11-28T14:29:06.315Z,6.67
2018-11-28T14:31:41.812Z,5.90
2018-11-28T14:34:13.456Z,6.27
2018-11-28T14:36:47.141Z,6.50
2018-11-28T14:39:18.347Z,6.37
2018-11-28T14:41:50.547Z,6.40
2018-11-28T14:44:32.166Z,6.23
2018-11-28T14:47:20.850Z,6.60
2018-11-28T14:49:50.936Z,6.57
2018-11-28T14:52:20.684Z,7.07
2018-11-28T14:54:50.784Z,6.50
2018-11-28T14:57:20.773Z,7.17
2018-11-28T14:59:51.024Z,6.87
2018-11-28T15:02:21.064Z,7.37
2018-11-28T15:04:51.152Z,7.60
2018-11-28T15:07:21.944Z,6.63
2018-11-28T15:09:52.304Z,7.03
2018-11-28T15:12:22.156Z,7.27
2018-11-28T15:14:51.716Z,7.47
2018-11-28T15:17:22.144Z,7.00
2018-11-28T15:19:52.276Z,6.73
2018-11-28T15:22:22.264Z,7.80
2018-11-28T15:24:52.123Z,6.97
2018-11-28T15:27:22.525Z,7.40
2018-11-28T15:29:52.616Z,8.27
2018-11-28T15:32:22.653Z,7.13
2018-11-28T15:34:57.893Z,8.30
2018-11-28T15:37:24.304Z,7.80
2018-11-28T15:39:55.955Z,8.27
2018-11-28T15:42:26.608Z,8.53
2018-11-28T15:44:56.544Z,7.70
2018-11-28T15:47:28.197Z,8.37
2018-11-28T15:49:58.867Z,8.27
2018-11-28T15:52:30.264Z,8.13
2018-11-28T15:55:00.388Z,7.47
2018-11-28T15:57:31.564Z,7.90
2018-11-28T16:00:01.586Z,8.03
2018-11-28T16:02:33.224Z,9.13
2018-11-28T16:05:03.749Z,8.93
2018-11-28T16:07:34.261Z,8.50
2018-11-28T16:10:10.794Z,9.93
2018-11-28T16:12:40.744Z,8.60
2018-11-28T16:15:13.795Z,9.20
2018-11-28T16:17:43.964Z,9.20
2018-11-28T16:20:14.523Z,8.40
2018-11-28T16:22:45.386Z,9.00
2018-11-28T16:25:15.356Z,9.00
2018-11-28T16:27:45.265Z,8.93
2018-11-28T16:30:17.785Z,9.80
2018-11-28T16:32:48.324Z,8.93
2018-11-28T16:35:19.577Z,8.87
2018-11-28T16:37:49.693Z,9.90
2018-11-28T16:40:30.252Z,9.73
2018-11-28T16:43:01.067Z,10.23
2018-11-28T16:45:31.114Z,9.17
2018-11-28T16:48:01.374Z,9.37
2018-11-28T16:50:31.285Z,9.17
2018-11-28T16:53:15.487Z,9.33
2018-11-28T16:56:06.034Z,9.47
2018-11-28T16:58:36.624Z,9.33
2018-11-28T17:01:07.123Z,9.83
2018-11-28T17:03:37.427Z,9.63
2018-11-28T17:06:07.614Z,8.97
2018-11-28T17:08:38.601Z,8.30
2018-11-28T17:11:08.614Z,9.30
2018-11-28T17:13:38.300Z,8.47
2018-11-28T17:16:12.378Z,8.57
2018-11-28T17:18:55.667Z,8.33
2018-11-28T17:21:28.259Z,8.50
2018-11-28T17:24:01.521Z,8.30
2018-11-28T17:26:31.233Z,8.67
2018-11-28T17:29:12.341Z,9.10
2018-11-28T17:31:42.743Z,8.23
2018-11-28T17:34:12.744Z,7.30
2018-11-28T17:36:42.914Z,6.70
2018-11-28T17:39:14.663Z,7.30
2018-11-28T17:41:44.664Z,8.03
2018-11-28T17:44:14.734Z,7.10
2018-11-28T17:46:44.644Z,7.87
2018-11-28T17:49:14.763Z,8.17
2018-11-28T17:51:44.934Z,8.03
2018-11-28T17:54:15.768Z,7.50
2018-11-28T17:56:44.639Z,6.97
2018-11-28T17:59:15.254Z,7.97
2018-11-28T18:01:45.307Z,8.30
2018-11-28T18:04:15.333Z,8.03
2018-11-28T18:06:45.264Z,6.50
2018-11-28T18:09:14.953Z,6.40
2018-11-28T18:11:44.973Z,6.10
2018-11-28T18:14:15.125Z,5.77
2018-11-28T18:16:45.775Z,5.67
2018-11-28T18:19:15.524Z,6.47
2018-11-28T18:21:45.534Z,6.37
2018-11-28T18:24:15.503Z,6.50
2018-11-28T18:26:45.503Z,6.53
2018-11-28T18:29:15.584Z,6.10
2018-11-28T18:31:46.424Z,6.73
2018-11-28T18:34:16.483Z,7.00
2018-11-28T18:36:46.623Z,7.90
2018-11-28T18:39:16.695Z,9.10
2018-11-28T18:41:49.342Z,8.10
2018-11-28T18:44:19.423Z,8.33
2018-11-28T18:46:49.483Z,8.40
2018-11-28T18:49:19.665Z,7.87
2018-11-28T18:51:50.023Z,7.87
2018-11-28T18:54:20.154Z,7.40
2018-11-28T18:56:50.395Z,8.23
2018-11-28T18:59:20.433Z,8.30
2018-11-28T19:01:50.523Z,7.33
2018-11-28T19:04:24.092Z,8.27
2018-11-28T19:06:54.153Z,7.77
2018-11-28T19:09:30.153Z,8.30
2018-11-28T19:12:00.280Z,8.93
2018-11-28T19:14:30.813Z,9.13
2018-11-28T19:17:00.952Z,10.00
2018-11-28T19:19:30.894Z,9.23
2018-11-28T19:22:01.890Z,9.43
2018-11-28T19:24:32.504Z,9.67
2018-11-28T19:27:02.736Z,8.43
2018-11-28T19:29:32.824Z,9.70
2018-11-28T19:32:02.863Z,9.03
2018-11-28T19:34:33.046Z,9.33
2018-11-28T19:37:03.304Z,9.17
2018-11-28T19:39:34.483Z,9.70
2018-11-28T19:42:05.071Z,10.03
2018-11-28T19:44:34.776Z,9.33
2018-11-28T19:47:04.947Z,9.07
2018-11-28T19:49:34.782Z,8.83
2018-11-28T19:52:04.933Z,8.13
2018-11-28T19:54:35.022Z,8.30
2018-11-28T19:57:11.673Z,7.93
2018-11-28T19:59:42.023Z,8.47
2018-11-28T20:02:11.494Z,8.50
2018-11-28T20:04:41.556Z,7.83
2018-11-28T20:07:11.381Z,7.87
2018-11-28T20:09:41.783Z,8.00
2018-11-28T20:12:11.932Z,8.07
2018-11-28T20:14:42.001Z,7.63
2018-11-28T20:17:12.210Z,7.70
2018-11-28T20:19:42.263Z,9.13
2018-11-28T20:22:12.456Z,9.70
2018-11-28T20:24:42.924Z,8.87
2018-11-28T20:27:12.872Z,9.50
2018-11-28T20:29:42.993Z,9.10
2018-11-28T20:32:13.202Z,8.33
2018-11-28T20:34:43.333Z,8.77
2018-11-28T20:37:13.434Z,8.30
2018-11-28T20:39:43.343Z,8.60
2018-11-28T20:42:13.372Z,8.40
2018-11-28T20:44:43.803Z,8.90
2018-11-28T20:47:13.883Z,8.33
2018-11-28T20:49:44.063Z,8.67
2018-11-28T20:52:14.363Z,9.30
2018-11-28T20:54:44.443Z,8.80
2018-11-28T20:57:17.373Z,8.77
2018-11-28T20:59:44.843Z,8.53
2018-11-28T21:02:14.863Z,9.57
2018-11-28T21:04:45.064Z,10.20
2018-11-28T21:07:15.162Z,9.97
2018-11-28T21:09:51.183Z,9.03
2018-11-28T21:12:21.563Z,9.47
2018-11-28T21:14:51.892Z,9.53
2018-11-28T21:17:21.884Z,9.93
2018-11-28T21:19:51.923Z,9.00
2018-11-28T21:22:22.182Z,10.23
2018-11-28T21:24:52.313Z,10.30
2018-11-28T21:27:22.302Z,10.23
2018-11-28T21:29:52.204Z,10.67
2018-11-28T21:32:22.232Z,10.57
2018-11-28T21:34:52.273Z,10.33
2018-11-28T21:37:22.222Z,10.03
2018-11-28T21:39:57.313Z,9.57
2018-11-28T21:42:34.125Z,10.33
2018-11-28T21:45:04.243Z,10.43
2018-11-28T21:47:34.303Z,10.30
2018-11-28T21:50:05.193Z,10.33
2018-11-28T21:52:35.252Z,10.13
2018-11-28T21:55:05.775Z,11.13
2018-11-28T21:57:35.772Z,10.93
2018-11-28T22:00:23.445Z,10.23
2018-11-28T22:02:53.415Z,10.57
2018-11-28T22:05:24.112Z,10.03
2018-11-28T22:07:54.253Z,10.77
2018-11-28T22:10:26.833Z,10.83
2018-11-28T22:12:57.443Z,10.00
2018-11-28T22:15:27.473Z,10.13
2018-11-28T22:17:58.932Z,11.30
2018-11-28T22:20:29.064Z,10.43
2018-11-28T22:22:58.932Z,10.90
2018-11-28T22:25:29.253Z,11.97
2018-11-28T22:27:59.358Z,12.10
2018-11-28T22:30:30.903Z,11.03
2018-11-28T22:33:01.256Z,10.87
2018-11-28T22:35:31.092Z,10.60
2018-11-28T22:38:01.173Z,10.50
2018-11-28T22:40:31.984Z,10.33
2018-11-28T22:43:02.223Z,11.20
2018-11-28T22:45:35.683Z,11.10
2018-11-28T22:48:05.943Z,11.00
2018-11-28T22:50:35.943Z,11.00
2018-11-28T22:53:06.504Z,11.20
2018-11-28T22:55:36.934Z,10.83
2018-11-28T22:58:07.272Z,11.03
2018-11-28T23:00:42.634Z,11.20
2018-11-28T23:03:12.563Z,9.57
2018-11-28T23:05:46.595Z,11.20
2018-11-28T23:08:18.122Z,10.90
2018-11-28T23:10:48.603Z,11.13
2018-11-28T23:13:21.675Z,10.27
2018-11-28T23:15:51.532Z,10.53
2018-11-28T23:18:21.477Z,11.00
2018-11-28T23:20:51.933Z,10.20
2018-11-28T23:23:22.013Z,12.57
2018-11-28T23:25:52.722Z,10.70
2018-11-28T23:28:22.555Z,9.83
2018-11-28T23:30:52.613Z,10.20
2018-11-28T23:33:22.592Z,11.30
2018-11-28T23:35:52.793Z,10.77
2018-11-28T23:38:22.433Z,10.33
2018-11-28T23:40:52.418Z,10.37
2018-11-28T23:43:22.503Z,11.40
2018-11-28T23:45:52.693Z,10.27
2018-11-28T23:48:22.743Z,11.40
2018-11-28T23:50:52.972Z,11.10
2018-11-28T23:53:22.556Z,10.20
2018-11-28T23:55:52.893Z,10.47
2018-11-28T23:58:23.614Z,11.40
